Time,TemperatureF,DewpointF,PressureIn,WindDirection,WindDirectionDegrees,WindSpeedMPH,WindSpeedGustMPH,Humidity,HourlyPrecipIn,Conditions,Clouds,dailyrainin,SolarRadiationWatts/m^2,SoftwareType,DateUTC
2017-02-21 00:03:00,41.2,39.0,29.68,South,173,2.0,3.0,92,0.00,,,0.00,0,weatherlink.com 1.10,2017-02-21 08:03:00,
2017-02-21 00:18:00,40.9,39.0,29.68,NE,36,2.0,5.0,93,0.00,,,0.00,0,weatherlink.com 1.10,2017-02-21 08:18:00,
2017-02-21 00:33:00,40.8,39.0,29.68,NE,36,0.0,3.0,93,0.00,,,0.00,0,weatherlink.com 1.10,2017-02-21 08:33:00,
2017-02-21 00:48:00,40.9,39.0,29.69,NE,36,0.0,1.0,93,0.00,,,0.00,0,weatherlink.com 1.10,2017-02-21 08:48:00,
2017-02-21 01:03:00,41.0,39.0,29.68,NE,36,0.0,2.0,93,0.00,,,0.00,0,weatherlink.com 1.10,2017-02-21 09:03:00,
2017-02-21 01:18:00,40.9,39.0,29.68,NE,36,0.0,2.0,93,0.00,,,0.00,0,weatherlink.com 1.10,2017-02-21 09:18:00,
2017-02-21 01:33:00,40.7,39.0,29.68,NE,36,0.0,1.0,93,0.00,,,0.00,0,weatherlink.com 1.10,2017-02-21 09:33:00,
2017-02-21 01:48:00,40.7,39.0,29.68,NE,36,0.0,0.0,93,0.00,,,0.00,0,weatherlink.com 1.10,2017-02-21 09:48:00,
2017-02-21 02:03:00,40.7,39.0,29.69,NE,36,0.0,0.0,93,0.00,,,0.00,0,weatherlink.com 1.10,2017-02-21 10:03:00,
2017-02-21 02:18:00,40.7,39.0,29.69,NE,36,0.0,0.0,93,0.00,,,0.00,0,weatherlink.com 1.10,2017-02-21 10:18:00,
2017-02-21 02:33:00,40.7,39.0,29.69,NE,36,0.0,2.0,93,0.00,,,0.00,0,weatherlink.com 1.10,2017-02-21 10:33:00,
2017-02-21 02:48:00,40.4,39.0,29.68,NE,36,1.0,3.0,93,0.00,,,0.00,0,weatherlink.com 1.10,2017-02-21 10:48:00,
2017-02-21 03:03:00,40.1,38.0,29.68,NNE,25,0.0,3.0,93,0.00,,,0.00,0,weatherlink.com 1.10,2017-02-21 11:03:00,
2017-02-21 03:18:00,40.0,38.0,29.68,NNE,25,0.0,1.0,93,0.00,,,0.00,0,weatherlink.com 1.10,2017-02-21 11:18:00,
2017-02-21 03:33:00,39.8,38.0,29.68,NNW,346,0.0,2.0,93,0.00,,,0.00,0,weatherlink.com 1.10,2017-02-21 11:33:00,
2017-02-21 03:48:00,39.5,38.0,29.68,NNW,346,0.0,2.0,93,0.00,,,0.00,0,weatherlink.com 1.10,2017-02-21 11:48:00,
2017-02-21 04:03:00,39.3,38.0,29.68,North,351,0.0,2.0,93,0.00,,,0.00,0,weatherlink.com 1.10,2017-02-21 12:03:00,
2017-02-21 04:18:00,39.3,38.0,29.68,North,355,3.0,4.0,93,0.00,,,0.00,0,weatherlink.com 1.10,2017-02-21 12:18:00,
2017-02-21 04:33:00,39.3,38.0,29.68,North,9,0.0,4.0,93,0.00,,,0.00,0,weatherlink.com 1.10,2017-02-21 12:33:00,
2017-02-21 04:49:00,39.0,37.0,29.68,NNE,28,3.0,5.0,93,0.00,,,0.00,0,weatherlink.com 1.10,2017-02-21 12:49:00,
2017-02-21 05:04:00,38.4,37.0,29.68,NNE,12,2.0,5.0,93,0.00,,,0.00,0,weatherlink.com 1.10,2017-02-21 13:04:00,
2017-02-21 05:19:00,37.7,36.0,29.68,NNE,13,0.0,4.0,93,0.00,,,0.00,0,weatherlink.com 1.10,2017-02-21 13:19:00,
2017-02-21 05:34:00,37.6,36.0,29.68,NNE,13,0.0,0.0,93,0.00,,,0.00,0,weatherlink.com 1.10,2017-02-21 13:34:00,
2017-02-21 05:49:00,38.2,37.0,29.69,West,277,3.0,6.0,94,0.00,,,0.00,0,weatherlink.com 1.10,2017-02-21 13:49:00,
2017-02-21 06:04:00,38.0,37.0,29.70,West,279,2.0,7.0,94,0.00,,,0.00,0,weatherlink.com 1.10,2017-02-21 14:04:00,
2017-02-21 06:19:00,38.4,37.0,29.70,West,260,4.0,6.0,94,0.00,,,0.00,0,weatherlink.com 1.10,2017-02-21 14:19:00,
2017-02-21 06:34:00,38.9,37.0,29.70,WNW,287,4.0,7.0,94,0.00,,,0.00,0,weatherlink.com 1.10,2017-02-21 14:34:00,
2017-02-21 06:49:00,38.4,37.0,29.71,West,276,3.0,6.0,94,0.00,,,0.00,0,weatherlink.com 1.10,2017-02-21 14:49:00,
2017-02-21 07:04:00,38.1,37.0,29.71,West,269,2.0,6.0,94,0.00,,,0.00,0,weatherlink.com 1.10,2017-02-21 15:04:00,
2017-02-21 07:20:00,38.3,37.0,29.72,WNW,296,1.0,4.0,94,0.00,,,0.00,9,weatherlink.com 1.10,2017-02-21 15:20:00,
2017-02-21 07:35:00,38.5,37.0,29.72,WNW,292,0.0,4.0,94,0.00,,,0.00,28,weatherlink.com 1.10,2017-02-21 15:35:00,
2017-02-21 07:50:00,38.5,37.0,29.73,WNW,292,0.0,0.0,94,0.00,,,0.00,44,weatherlink.com 1.10,2017-02-21 15:50:00,
2017-02-21 08:05:00,38.5,37.0,29.74,WNW,292,0.0,2.0,94,0.00,,,0.00,120,weatherlink.com 1.10,2017-02-21 16:05:00,
2017-02-21 08:21:00,39.0,38.0,29.75,West,271,2.0,6.0,94,0.00,,,0.00,121,weatherlink.com 1.10,2017-02-21 16:21:00,
2017-02-21 08:34:00,39.4,38.0,29.75,WNW,286,11.0,11.0,94,0.00,,,0.00,70,weatherlink.com 1.10,2017-02-21 16:34:00,
2017-02-21 08:49:00,39.6,38.0,29.76,West,270,6.0,8.0,94,0.00,,,0.00,146,weatherlink.com 1.10,2017-02-21 16:49:00,
2017-02-21 09:05:00,39.7,38.0,29.77,West,263,4.0,10.0,94,0.00,,,0.00,100,weatherlink.com 1.10,2017-02-21 17:05:00,
2017-02-21 09:20:00,39.7,38.0,29.78,WNW,291,7.0,10.0,93,0.00,,,0.00,54,weatherlink.com 1.10,2017-02-21 17:20:00,
2017-02-21 09:35:00,39.8,38.0,29.79,WNW,295,0.0,8.0,93,0.00,,,0.00,65,weatherlink.com 1.10,2017-02-21 17:35:00,
2017-02-21 09:50:00,39.9,38.0,29.80,WNW,300,3.0,12.0,93,0.00,,,0.00,88,weatherlink.com 1.10,2017-02-21 17:50:00,
2017-02-21 10:05:00,40.0,38.0,29.80,West,277,7.0,9.0,93,0.00,,,0.00,72,weatherlink.com 1.10,2017-02-21 18:05:00,
2017-02-21 10:20:00,39.9,38.0,29.81,WNW,288,8.0,9.0,92,0.00,,,0.00,81,weatherlink.com 1.10,2017-02-21 18:20:00,
2017-02-21 10:35:00,40.2,38.0,29.82,West,279,11.0,13.0,91,0.00,,,0.00,167,weatherlink.com 1.10,2017-02-21 18:35:00,
2017-02-21 10:50:00,40.5,38.0,29.83,NW,318,5.0,13.0,90,0.00,,,0.00,162,weatherlink.com 1.10,2017-02-21 18:50:00,
2017-02-21 11:05:00,40.6,38.0,29.84,West,270,6.0,9.0,89,0.00,,,0.00,130,weatherlink.com 1.10,2017-02-21 19:05:00,
2017-02-21 11:20:00,40.5,37.0,29.84,WNW,303,0.0,8.0,88,0.00,,,0.00,144,weatherlink.com 1.10,2017-02-21 19:20:00,
2017-02-21 11:35:00,40.7,38.0,29.85,West,273,1.0,7.0,88,0.00,,,0.00,95,weatherlink.com 1.10,2017-02-21 19:35:00,
2017-02-21 11:50:00,41.1,38.0,29.85,WNW,283,2.0,8.0,88,0.00,,,0.00,98,weatherlink.com 1.10,2017-02-21 19:50:00,
2017-02-21 12:05:00,40.9,37.0,29.85,WNW,303,2.0,10.0,87,0.00,,,0.00,141,weatherlink.com 1.10,2017-02-21 20:05:00,
2017-02-21 12:20:00,41.3,38.0,29.86,West,270,4.0,9.0,87,0.00,,,0.00,163,weatherlink.com 1.10,2017-02-21 20:20:00,
2017-02-21 12:35:00,41.4,38.0,29.86,West,268,4.0,9.0,86,0.00,,,0.00,272,weatherlink.com 1.10,2017-02-21 20:35:00,
2017-02-21 12:50:00,41.8,38.0,29.86,West,272,6.0,9.0,85,0.00,,,0.00,257,weatherlink.com 1.10,2017-02-21 20:50:00,
2017-02-21 13:05:00,41.8,38.0,29.87,West,262,8.0,10.0,85,0.00,,,0.00,206,weatherlink.com 1.10,2017-02-21 21:05:00,
2017-02-21 13:20:00,41.9,37.0,29.87,West,269,8.0,12.0,84,0.00,,,0.00,169,weatherlink.com 1.10,2017-02-21 21:20:00,
2017-02-21 13:36:00,42.0,38.0,29.88,West,276,6.0,8.0,84,0.00,,,0.00,239,weatherlink.com 1.10,2017-02-21 21:36:00,
2017-02-21 13:51:00,42.6,38.0,29.88,WSW,246,4.0,11.0,83,0.00,,,0.00,441,weatherlink.com 1.10,2017-02-21 21:51:00,
2017-02-21 14:05:00,42.9,38.0,29.88,SW,219,5.0,10.0,82,0.00,,,0.00,517,weatherlink.com 1.10,2017-02-21 22:05:00,
2017-02-21 14:21:00,43.4,37.0,29.89,WNW,290,3.0,12.0,78,0.00,,,0.00,478,weatherlink.com 1.10,2017-02-21 22:21:00,
2017-02-21 14:36:00,43.4,37.0,29.89,West,264,6.0,10.0,77,0.00,,,0.00,142,weatherlink.com 1.10,2017-02-21 22:36:00,
2017-02-21 14:51:00,44.0,38.0,29.89,West,259,6.0,9.0,78,0.00,,,0.00,295,weatherlink.com 1.10,2017-02-21 22:51:00,
2017-02-21 15:06:00,44.6,37.0,29.89,WSW,254,5.0,7.0,76,0.00,,,0.00,401,weatherlink.com 1.10,2017-02-21 23:06:00,
2017-02-21 15:21:00,44.7,37.0,29.90,WSW,237,2.0,8.0,75,0.00,,,0.00,383,weatherlink.com 1.10,2017-02-21 23:21:00,
2017-02-21 15:36:00,44.3,37.0,29.91,SW,216,6.0,9.0,76,0.00,,,0.00,181,weatherlink.com 1.10,2017-02-21 23:36:00,
2017-02-21 15:51:00,44.5,37.0,29.91,WSW,249,4.0,8.0,75,0.00,,,0.00,111,weatherlink.com 1.10,2017-02-21 23:51:00,
2017-02-21 16:06:00,43.5,37.0,29.92,SW,235,4.0,8.0,77,0.00,,,0.00,76,weatherlink.com 1.10,2017-02-22 00:06:00,
2017-02-21 16:21:00,43.2,37.0,29.92,SW,229,3.0,7.0,78,0.00,,,0.00,104,weatherlink.com 1.10,2017-02-22 00:21:00,
2017-02-21 16:36:00,43.1,37.0,29.93,SW,222,5.0,6.0,78,0.00,,,0.00,93,weatherlink.com 1.10,2017-02-22 00:36:00,